createdAt,value
2023-04-15T01:33:47.731Z,100.00
2023-04-15T01:36:51.453Z,100.00
2023-04-15T01:39:54.956Z,100.00
2023-04-15T01:42:58.564Z,100.00
2023-04-15T01:46:01.707Z,100.00
2023-04-15T01:49:04.696Z,100.00
2023-04-15T01:52:08.124Z,100.00
2023-04-15T01:55:12.732Z,100.00
2023-04-15T01:58:15.774Z,100.00
2023-04-15T02:01:20.194Z,100.00
2023-04-15T02:04:23.734Z,100.00
2023-04-15T02:07:26.664Z,100.00
2023-04-15T02:10:29.888Z,100.00
2023-04-15T02:13:32.785Z,100.00
2023-04-15T02:16:36.184Z,100.00
2023-04-15T02:19:40.500Z,100.00
2023-04-15T02:22:43.927Z,100.00
2023-04-15T02:25:53.754Z,100.00
2023-04-15T02:28:57.347Z,100.00
2023-04-15T02:32:00.340Z,100.00
2023-04-15T02:35:08.896Z,100.00
2023-04-15T02:38:12.333Z,100.00
2023-04-15T02:41:18.819Z,100.00
2023-04-15T02:44:23.509Z,100.00
2023-04-15T02:47:27.018Z,100.00
2023-04-15T02:50:30.066Z,100.00
2023-04-15T02:53:36.262Z,100.00
2023-04-15T02:56:38.892Z,100.00
2023-04-15T02:59:42.102Z,100.00
2023-04-15T03:02:47.109Z,100.00
2023-04-15T03:05:50.625Z,100.00
2023-04-15T03:08:53.875Z,100.00
2023-04-15T03:11:57.077Z,100.00
2023-04-15T03:15:02.146Z,100.00
2023-04-15T03:18:07.339Z,100.00
2023-04-15T03:21:12.665Z,100.00
2023-04-15T03:24:16.146Z,100.00
2023-04-15T03:27:20.165Z,100.00
2023-04-15T03:30:26.554Z,100.00
2023-04-15T03:33:32.792Z,100.00
2023-04-15T03:36:36.402Z,100.00
2023-04-15T03:39:39.396Z,100.00
2023-04-15T03:42:42.481Z,100.00
2023-04-15T03:45:45.356Z,100.00
2023-04-15T03:48:48.860Z,100.00
2023-04-15T03:51:51.747Z,100.00
2023-04-15T03:54:54.633Z,100.00
2023-04-15T03:57:57.272Z,100.00
2023-04-15T04:01:00.402Z,100.00
2023-04-15T04:04:03.612Z,100.00
2023-04-15T04:07:06.497Z,100.00
2023-04-15T04:10:09.916Z,100.00
2023-04-15T04:13:12.703Z,100.00
2023-04-15T04:16:15.952Z,100.00
2023-04-15T04:19:19.996Z,100.00
2023-04-15T04:22:24.357Z,100.00
2023-04-15T04:25:27.341Z,100.00
2023-04-15T04:28:30.438Z,100.00
2023-04-15T04:31:33.863Z,100.00
2023-04-15T04:34:36.841Z,100.00
2023-04-15T04:37:39.465Z,100.00
2023-04-15T04:40:42.543Z,100.00
2023-04-15T04:43:45.176Z,100.00
2023-04-15T04:46:48.031Z,100.00
2023-04-15T04:49:50.773Z,100.00
2023-04-15T04:52:53.898Z,100.00
2023-04-15T04:55:56.552Z,100.00
2023-04-15T04:58:59.964Z,100.00
2023-04-15T05:02:03.428Z,100.00
2023-04-15T05:05:07.140Z,100.00
2023-04-15T05:08:09.774Z,100.00
2023-04-15T05:11:13.113Z,100.00
2023-04-15T05:14:16.518Z,100.00
2023-04-15T05:17:19.475Z,100.00
2023-04-15T05:20:22.258Z,100.00
2023-04-15T05:23:25.622Z,100.00
2023-04-15T05:26:28.476Z,100.00
2023-04-15T05:29:31.531Z,100.00
2023-04-15T05:32:34.390Z,100.00
2023-04-15T05:35:37.441Z,100.00
2023-04-15T05:38:40.189Z,100.00
2023-04-15T05:41:44.937Z,100.00
2023-04-15T05:44:47.706Z,100.00
2023-04-15T05:47:53.929Z,100.00
2023-04-15T05:50:57.034Z,100.00
2023-04-15T05:54:00.109Z,100.00
2023-04-15T05:57:02.888Z,100.00
2023-04-15T06:00:06.669Z,100.00
2023-04-15T06:03:12.576Z,100.00
2023-04-15T06:06:15.866Z,100.00
2023-04-15T06:09:18.609Z,100.00
2023-04-15T06:12:24.689Z,100.00
2023-04-15T06:15:30.441Z,100.00
2023-04-15T06:18:35.899Z,100.00
2023-04-15T06:21:39.746Z,100.00
2023-04-15T06:24:42.735Z,100.00
2023-04-15T06:27:45.636Z,100.00
2023-04-15T06:30:48.797Z,100.00
2023-04-15T06:33:51.605Z,100.00
2023-04-15T06:36:55.837Z,100.00
2023-04-15T06:39:58.915Z,100.00
2023-04-15T06:43:04.966Z,100.00
2023-04-15T06:46:07.860Z,100.00
2023-04-15T06:49:11.570Z,100.00
2023-04-15T06:52:14.559Z,100.00
2023-04-15T06:55:17.862Z,100.00
2023-04-15T06:58:20.735Z,100.00
2023-04-15T07:01:24.010Z,100.00
2023-04-15T07:04:27.914Z,100.00
2023-04-15T07:07:31.245Z,100.00
2023-04-15T07:10:34.522Z,100.00
2023-04-15T07:13:37.760Z,100.00
2023-04-15T07:16:40.413Z,100.00
2023-04-15T07:19:43.436Z,100.00
2023-04-15T07:22:46.350Z,100.00
2023-04-15T07:25:49.387Z,100.00
2023-04-15T07:28:52.360Z,99.29
2023-04-15T07:31:57.229Z,95.52
2023-04-15T07:34:59.964Z,91.43
2023-04-15T07:38:05.052Z,82.90
2023-04-15T07:41:07.899Z,84.90
2023-04-15T07:44:11.429Z,85.37
2023-04-15T07:47:14.209Z,81.11
2023-04-15T07:50:17.631Z,86.29
2023-04-15T07:53:24.100Z,91.52
2023-04-15T07:56:27.228Z,93.14
2023-04-15T07:59:31.190Z,91.15
2023-04-15T08:02:36.367Z,92.09
2023-04-15T08:05:40.407Z,85.75
2023-04-15T08:08:43.250Z,89.92
2023-04-15T08:11:51.003Z,88.80
2023-04-15T08:14:57.549Z,90.03
2023-04-15T08:18:09.485Z,88.27
2023-04-15T08:21:12.248Z,85.59
2023-04-15T08:24:15.801Z,83.08
2023-04-15T08:27:18.954Z,81.59
2023-04-15T08:30:21.885Z,77.41
2023-04-15T08:33:24.504Z,79.49
2023-04-15T08:36:27.796Z,82.25
2023-04-15T08:39:30.846Z,85.64
2023-04-15T08:42:42.916Z,80.00
2023-04-15T08:45:47.389Z,82.07
2023-04-15T08:48:50.916Z,85.57
2023-04-15T08:51:53.834Z,85.32
2023-04-15T08:55:01.620Z,87.31
2023-04-15T08:58:05.702Z,82.06
2023-04-15T09:01:10.024Z,81.63
2023-04-15T09:04:15.546Z,83.79
2023-04-15T09:07:22.434Z,86.32
2023-04-15T09:10:25.006Z,84.75
2023-04-15T09:13:28.280Z,76.59
2023-04-15T09:16:31.854Z,78.83
2023-04-15T09:19:35.235Z,82.22
2023-04-15T09:22:38.897Z,82.43
2023-04-15T09:25:42.933Z,81.81
2023-04-15T09:28:45.898Z,80.74
2023-04-15T09:31:49.175Z,81.14
2023-04-15T09:34:52.400Z,80.75
2023-04-15T09:38:05.501Z,76.46
2023-04-15T09:41:19.588Z,75.72
2023-04-15T09:44:24.172Z,72.16
2023-04-15T09:47:28.878Z,74.28
2023-04-15T09:50:41.287Z,73.63
2023-04-15T09:53:43.917Z,75.64
2023-04-15T09:56:47.592Z,75.94
2023-04-15T09:59:51.338Z,77.67
2023-04-15T10:02:55.019Z,77.92
2023-04-15T10:06:01.005Z,79.12
2023-04-15T10:09:04.404Z,78.83
2023-04-15T10:12:07.949Z,78.15
2023-04-15T10:15:19.582Z,78.23
2023-04-15T10:18:26.240Z,81.07
2023-04-15T10:21:30.871Z,83.97
2023-04-15T10:24:34.348Z,82.15
2023-04-15T10:27:37.505Z,86.33
2023-04-15T10:30:45.066Z,88.82
2023-04-15T10:33:50.861Z,88.73
2023-04-15T10:36:57.572Z,86.18
2023-04-15T10:40:00.694Z,82.63
2023-04-15T10:43:07.000Z,78.20
2023-04-15T10:46:10.846Z,80.52
2023-04-15T10:49:24.450Z,81.79
2023-04-15T10:52:29.080Z,79.22
2023-04-15T10:55:33.606Z,81.73
2023-04-15T10:58:43.707Z,82.26
2023-04-15T11:01:55.317Z,82.65
2023-04-15T11:05:02.651Z,84.23
2023-04-15T11:08:11.586Z,89.51
2023-04-15T11:11:14.330Z,93.40
2023-04-15T11:14:17.465Z,96.57
2023-04-15T11:17:29.776Z,97.34
2023-04-15T11:20:33.916Z,94.23
2023-04-15T11:23:46.999Z,96.39
2023-04-15T11:26:50.135Z,95.58
2023-04-15T11:29:54.647Z,92.43
2023-04-15T11:33:04.040Z,87.70
2023-04-15T11:36:32.814Z,82.98
2023-04-15T11:39:40.180Z,84.48
2023-04-15T11:42:49.985Z,87.21
2023-04-15T11:46:01.369Z,86.94
2023-04-15T11:49:05.191Z,87.03
2023-04-15T11:52:12.323Z,85.35
2023-04-15T11:55:15.471Z,83.42
2023-04-15T11:58:18.577Z,82.31
2023-04-15T12:01:21.652Z,84.08
2023-04-15T12:04:27.470Z,84.83
2023-04-15T12:07:30.357Z,86.57
2023-04-15T12:10:35.641Z,85.46
2023-04-15T12:13:41.865Z,89.13
2023-04-15T12:16:49.214Z,89.20
2023-04-15T12:19:57.195Z,89.49
2023-04-15T12:23:07.258Z,88.99
2023-04-15T12:26:10.657Z,89.60
2023-04-15T12:29:16.353Z,86.35
2023-04-15T12:32:22.933Z,86.88
2023-04-15T12:35:25.802Z,87.86
2023-04-15T12:38:28.695Z,88.44
2023-04-15T12:41:32.437Z,86.92
2023-04-15T12:44:36.329Z,86.25
2023-04-15T12:47:39.518Z,86.88
2023-04-15T12:50:42.480Z,84.42
2023-04-15T12:53:45.595Z,85.00
2023-04-15T12:56:50.186Z,85.10
2023-04-15T12:59:55.101Z,83.94
2023-04-15T13:02:58.120Z,83.14
2023-04-15T13:06:02.338Z,81.38
2023-04-15T13:09:06.211Z,83.87
2023-04-15T13:12:16.541Z,84.12
2023-04-15T13:15:22.474Z,83.56
2023-04-15T13:18:25.425Z,86.05
2023-04-15T13:21:32.256Z,86.87
2023-04-15T13:24:36.263Z,86.00
2023-04-15T13:27:39.023Z,84.21
2023-04-15T13:30:43.214Z,83.99
2023-04-15T13:33:46.185Z,85.53
2023-04-15T13:36:49.184Z,86.56
2023-04-15T13:39:52.094Z,87.05
2023-04-15T13:42:56.225Z,89.32
2023-04-15T13:45:58.956Z,89.73
2023-04-15T13:49:02.447Z,90.71
2023-04-15T13:52:05.129Z,90.36
2023-04-15T13:55:20.490Z,90.30
2023-04-15T13:58:25.093Z,88.44
2023-04-15T14:01:28.992Z,88.99
2023-04-15T14:04:32.831Z,87.87
2023-04-15T14:07:35.986Z,87.90
2023-04-15T14:10:38.869Z,87.68
2023-04-15T14:13:42.292Z,89.44
2023-04-15T14:16:45.494Z,88.68
2023-04-15T14:19:48.499Z,90.11
2023-04-15T14:22:52.453Z,91.08
2023-04-15T14:25:55.150Z,92.36
2023-04-15T14:29:01.197Z,92.48
2023-04-15T14:32:12.049Z,91.67
2023-04-15T14:35:15.974Z,90.94
2023-04-15T14:38:24.560Z,93.19
2023-04-15T14:41:27.827Z,93.14
2023-04-15T18:57:42.895Z,100.00
2023-04-15T19:00:51.017Z,100.00
2023-04-15T19:03:56.284Z,100.00
2023-04-15T19:07:00.652Z,100.00
2023-04-15T19:10:09.339Z,100.00
2023-04-15T19:13:18.811Z,100.00
2023-04-15T19:16:25.906Z,100.00
2023-04-15T19:19:56.941Z,100.00
2023-04-15T19:23:13.830Z,100.00
2023-04-15T19:26:19.111Z,100.00
2023-04-15T19:29:23.689Z,100.00
2023-04-15T19:32:31.796Z,100.00
2023-04-15T19:36:07.533Z,100.00
2023-04-15T19:39:15.722Z,100.00
2023-04-15T19:42:21.064Z,100.00
2023-04-15T19:45:28.277Z,100.00
2023-04-15T19:48:33.326Z,100.00
2023-04-15T19:51:39.388Z,100.00
2023-04-15T19:54:48.382Z,100.00
2023-04-15T19:57:55.478Z,100.00
2023-04-15T20:01:01.497Z,100.00
2023-04-15T20:04:08.096Z,100.00
2023-04-15T20:07:22.039Z,100.00
2023-04-15T20:10:26.722Z,100.00
2023-04-15T20:13:30.426Z,100.00
2023-04-15T20:16:35.673Z,100.00
2023-04-15T20:19:42.096Z,100.00
2023-04-15T20:22:47.427Z,100.00
2023-04-15T20:25:54.847Z,100.00
2023-04-15T20:28:59.879Z,100.00
2023-04-15T20:32:05.113Z,100.00
2023-04-15T20:35:10.169Z,100.00
2023-04-15T20:38:15.447Z,100.00
2023-04-15T20:41:21.879Z,100.00
2023-04-15T20:44:28.550Z,100.00
2023-04-15T20:47:32.315Z,100.00
2023-04-15T20:50:37.043Z,100.00
2023-04-15T20:53:42.176Z,100.00
2023-04-15T20:56:45.062Z,100.00
2023-04-15T20:59:48.383Z,100.00
2023-04-15T21:02:51.937Z,100.00
2023-04-15T21:05:57.402Z,100.00
2023-04-15T21:09:01.189Z,100.00
2023-04-15T21:12:04.484Z,100.00
2023-04-15T21:15:08.461Z,100.00
2023-04-15T21:18:11.658Z,100.00
2023-04-15T21:21:14.598Z,100.00
2023-04-15T21:24:18.059Z,100.00
2023-04-15T21:27:21.079Z,100.00
2023-04-15T21:30:24.387Z,100.00
2023-04-15T21:33:27.286Z,100.00
2023-04-15T21:36:32.661Z,100.00
2023-04-15T21:39:35.918Z,100.00
2023-04-15T21:42:41.756Z,100.00
2023-04-15T21:45:51.380Z,100.00
2023-04-15T21:49:08.308Z,100.00
2023-04-15T21:52:12.012Z,100.00
2023-04-15T21:55:15.163Z,100.00
2023-04-15T21:58:18.915Z,100.00
2023-04-15T22:01:25.939Z,100.00
2023-04-15T22:04:35.586Z,100.00
2023-04-15T22:07:38.485Z,100.00
2023-04-15T22:10:44.683Z,100.00
2023-04-15T22:13:50.418Z,100.00
2023-04-15T22:16:58.462Z,100.00
2023-04-15T22:20:01.685Z,100.00
2023-04-15T22:23:09.063Z,100.00
2023-04-15T22:26:12.261Z,100.00
2023-04-15T22:29:16.913Z,100.00
2023-04-15T22:32:20.993Z,100.00
2023-04-15T22:35:24.372Z,100.00
2023-04-15T22:38:27.590Z,100.00
2023-04-15T22:41:30.666Z,100.00
2023-04-15T22:44:33.923Z,100.00
2023-04-15T22:47:37.409Z,100.00
2023-04-15T22:50:40.723Z,100.00
2023-04-15T22:53:44.113Z,100.00
2023-04-15T22:56:47.099Z,100.00
2023-04-15T22:59:50.188Z,100.00
2023-04-15T23:02:52.933Z,100.00
2023-04-15T23:05:56.501Z,100.00
2023-04-15T23:08:59.637Z,100.00
2023-04-15T23:12:06.375Z,100.00
2023-04-15T23:15:09.568Z,100.00
2023-04-15T23:18:12.952Z,100.00
2023-04-15T23:21:17.139Z,100.00
2023-04-15T23:24:23.110Z,100.00
2023-04-15T23:27:25.729Z,100.00
2023-04-15T23:30:28.982Z,100.00
2023-04-15T23:33:32.683Z,100.00
2023-04-15T23:36:36.179Z,100.00
2023-04-15T23:39:39.052Z,100.00
2023-04-15T23:42:42.524Z,100.00
2023-04-15T23:45:45.367Z,100.00
2023-04-15T23:48:51.772Z,100.00
2023-04-15T23:51:54.874Z,100.00
2023-04-15T23:55:00.232Z,100.00
2023-04-15T23:58:04.134Z,100.00
